Terminal Aerodrome Forecast
Issued by NWS

Home | Current Version | Previous Version | Text Only | Print | Product List | Glossary On
Versions: 1 2 3 4 5 6 7 8 9 10 11 12
021
FTUS43 KSGF 011720
TAFBBG
TAF
KBBG 011720Z 0118/0218 VRB03KT P6SM FEW150
     FM021000 00000KT 3SM BR SCT060
     FM021200 00000KT 2SM BR SCT025 BKN035
     FM021400 00000KT 3SM BR SCT120
     FM021500 VRB03KT P6SM SKC=

USA.gov is the U.S. government's official web portal to all federal, state and local government web resources and services.